sensor_id;sensor_type;location;lat;lon;timestamp;pressure;altitude;pressure_sealevel;temperature;humidity
50684;BME280;36654;45.042;38.994;2023-04-10T00:01:47;101477.00;;;10.20;85.21
50684;BME280;36654;45.042;38.994;2023-04-10T00:04:13;101496.75;;;10.31;85.15
50684;BME280;36654;45.042;38.994;2023-04-10T00:06:39;101452.72;;;10.01;85.25
50684;BME280;36654;45.042;38.994;2023-04-10T00:09:06;101489.38;;;10.21;85.21
50684;BME280;36654;45.042;38.994;2023-04-10T00:11:32;101496.56;;;10.25;85.30
50684;BME280;36654;45.042;38.994;2023-04-10T00:13:57;101509.81;;;10.25;85.16
50684;BME280;36654;45.042;38.994;2023-04-10T00:16:23;101496.44;;;10.19;85.07
50684;BME280;36654;45.042;38.994;2023-04-10T00:18:49;101497.31;;;10.19;85.26
50684;BME280;36654;45.042;38.994;2023-04-10T00:21:14;101486.66;;;10.16;85.41
50684;BME280;36654;45.042;38.994;2023-04-10T00:23:40;101436.53;;;9.89;85.22
50684;BME280;36654;45.042;38.994;2023-04-10T00:26:06;101473.03;;;10.02;85.31
50684;BME280;36654;45.042;38.994;2023-04-10T00:28:31;101487.34;;;10.09;85.22
50684;BME280;36654;45.042;38.994;2023-04-10T00:30:57;101476.63;;;10.04;85.31
50684;BME280;36654;45.042;38.994;2023-04-10T00:33:22;101487.38;;;10.10;85.25
50684;BME280;36654;45.042;38.994;2023-04-10T00:35:48;101483.88;;;10.11;85.42
50684;BME280;36654;45.042;38.994;2023-04-10T00:38:14;101478.50;;;10.08;85.44
50684;BME280;36654;45.042;38.994;2023-04-10T00:40:40;101467.78;;;10.04;85.24
50684;BME280;36654;45.042;38.994;2023-04-10T00:43:05;101476.63;;;10.04;85.18
50684;BME280;36654;45.042;38.994;2023-04-10T00:45:31;101473.13;;;10.05;85.42
50684;BME280;36654;45.042;38.994;2023-04-10T00:47:57;101485.41;;;10.03;85.43
50684;BME280;36654;45.042;38.994;2023-04-10T00:50:22;101451.41;;;9.84;85.42
50684;BME280;36654;45.042;38.994;2023-04-10T00:52:48;101474.81;;;10.02;85.20
50684;BME280;36654;45.042;38.994;2023-04-10T00:55:16;101462.31;;;9.96;85.57
50684;BME280;36654;45.042;38.994;2023-04-10T00:57:44;101469.47;;;10.00;85.41
50684;BME280;36654;45.042;38.994;2023-04-10T01:00:14;101474.69;;;9.97;85.53
50684;BME280;36654;45.042;38.994;2023-04-10T01:02:40;101465.78;;;9.95;85.36
50684;BME280;36654;45.042;38.994;2023-04-10T01:05:07;101461.50;;;9.99;85.52
50684;BME280;36654;45.042;38.994;2023-04-10T01:10:45;101466.63;;;9.92;85.34
50684;BME280;36654;45.042;38.994;2023-04-10T01:13:23;101465.66;;;9.89;85.22
50684;BME280;36654;45.042;38.994;2023-04-10T01:18:30;101449.44;;;9.77;85.61
50684;BME280;36654;45.042;38.994;2023-04-10T01:20:59;101453.03;;;9.79;85.48
50684;BME280;36654;45.042;38.994;2023-04-10T01:26:14;101465.34;;;9.77;85.56
50684;BME280;36654;45.042;38.994;2023-04-10T01:28:59;101464.44;;;9.76;85.64
50684;BME280;36654;45.042;38.994;2023-04-10T01:34:24;101454.50;;;9.67;85.86
50684;BME280;36654;45.042;38.994;2023-04-10T01:36:54;101456.19;;;9.65;85.94
50684;BME280;36654;45.042;38.994;2023-04-10T01:39:21;101455.25;;;9.62;85.92
50684;BME280;36654;45.042;38.994;2023-04-10T01:41:51;101441.72;;;9.51;85.94
50684;BME280;36654;45.042;38.994;2023-04-10T01:44:23;101416.78;;;9.43;85.88
50684;BME280;36654;45.042;38.994;2023-04-10T01:46:53;101454.41;;;9.64;85.91
50684;BME280;36654;45.042;38.994;2023-04-10T01:49:20;101442.03;;;9.63;85.92
50684;BME280;36654;45.042;38.994;2023-04-10T01:51:48;101407.09;;;9.43;86.03
50684;BME280;36654;45.042;38.994;2023-04-10T01:54:16;101441.94;;;9.60;85.95
50684;BME280;36654;45.042;38.994;2023-04-10T01:56:42;101432.19;;;9.58;85.91
50684;BME280;36654;45.042;38.994;2023-04-10T01:59:08;101447.16;;;9.57;85.90
50684;BME280;36654;45.042;38.994;2023-04-10T02:01:34;101440.09;;;9.56;85.78
50684;BME280;36654;45.042;38.994;2023-04-10T02:04:01;101427.63;;;9.52;86.00
50684;BME280;36654;45.042;38.994;2023-04-10T02:06:46;101427.56;;;9.49;85.93
50684;BME280;36654;45.042;38.994;2023-04-10T02:09:26;101436.44;;;9.51;85.66
50684;BME280;36654;45.042;38.994;2023-04-10T02:12:02;101446.28;;;9.57;85.86
50684;BME280;36654;45.042;38.994;2023-04-10T02:14:30;101446.22;;;9.54;85.65
50684;BME280;36654;45.042;38.994;2023-04-10T02:16:57;101427.56;;;9.49;85.62
50684;BME280;36654;45.042;38.994;2023-04-10T02:19:24;101425.75;;;9.48;85.86
50684;BME280;36654;45.042;38.994;2023-04-10T02:21:52;101436.31;;;9.48;85.59
50684;BME280;36654;45.042;38.994;2023-04-10T02:24:19;101433.72;;;9.49;85.64
50684;BME280;36654;45.042;38.994;2023-04-10T02:26:51;101431.03;;;9.48;85.65
50684;BME280;36654;45.042;38.994;2023-04-10T02:29:17;101408.56;;;9.32;85.66
50684;BME280;36654;45.042;38.994;2023-04-10T02:31:44;101438.03;;;9.46;85.51
50684;BME280;36654;45.042;38.994;2023-04-10T02:34:10;101435.31;;;9.43;85.56
50684;BME280;36654;45.042;38.994;2023-04-10T02:36:38;101418.34;;;9.35;85.58
50684;BME280;36654;45.042;38.994;2023-04-10T02:39:05;101434.38;;;9.41;85.53
50684;BME280;36654;45.042;38.994;2023-04-10T02:41:31;101394.13;;;9.19;85.54
50684;BME280;36654;45.042;38.994;2023-04-10T02:43:56;101441.41;;;9.39;85.66
50684;BME280;36654;45.042;38.994;2023-04-10T02:46:22;101433.47;;;9.40;85.58
50684;BME280;36654;45.042;38.994;2023-04-10T02:48:49;101385.19;;;9.16;85.65
50684;BME280;36654;45.042;38.994;2023-04-10T02:51:14;101437.00;;;9.39;85.61
50684;BME280;36654;45.042;38.994;2023-04-10T02:53:40;101441.28;;;9.36;85.38
50684;BME280;36654;45.042;38.994;2023-04-10T02:56:06;101427.22;;;9.37;85.36
50684;BME280;36654;45.042;38.994;2023-04-10T02:58:33;101438.03;;;9.46;85.68
50684;BME280;36654;45.042;38.994;2023-04-10T03:01:00;101450.19;;;9.71;85.25
50684;BME280;36654;45.042;38.994;2023-04-10T03:03:26;101447.13;;;9.90;84.97
50684;BME280;36654;45.042;38.994;2023-04-10T03:05:52;101437.84;;;10.06;84.32
50684;BME280;36654;45.042;38.994;2023-04-10T03:08:18;101443.56;;;10.25;83.82
50684;BME280;36654;45.042;38.994;2023-04-10T03:10:45;101449.69;;;10.58;83.04
50684;BME280;36654;45.042;38.994;2023-04-10T03:13:10;101454.00;;;10.94;81.65
50684;BME280;36654;45.042;38.994;2023-04-10T03:15:36;101435.06;;;11.20;80.19
50684;BME280;36654;45.042;38.994;2023-04-10T03:18:03;101442.94;;;11.61;78.89
50684;BME280;36654;45.042;38.994;2023-04-10T03:20:30;101449.84;;;12.01;77.11
50684;BME280;36654;45.042;38.994;2023-04-10T03:22:58;101447.72;;;12.34;75.06
50684;BME280;36654;45.042;38.994;2023-04-10T03:25:24;101427.50;;;12.48;73.30
50684;BME280;36654;45.042;38.994;2023-04-10T03:27:49;101430.44;;;12.66;72.05
50684;BME280;36654;45.042;38.994;2023-04-10T03:30:15;101428.91;;;12.84;71.35
50684;BME280;36654;45.042;38.994;2023-04-10T03:32:41;101430.13;;;13.12;70.24
50684;BME280;36654;45.042;38.994;2023-04-10T03:35:08;101440.94;;;13.24;69.02
50684;BME280;36654;45.042;38.994;2023-04-10T03:37:34;101435.75;;;13.33;68.53
50684;BME280;36654;45.042;38.994;2023-04-10T03:40:00;101420.63;;;13.31;67.96
50684;BME280;36654;45.042;38.994;2023-04-10T03:42:25;101423.38;;;13.38;67.62
50684;BME280;36654;45.042;38.994;2023-04-10T03:44:51;101429.72;;;13.51;66.85
50684;BME280;36654;45.042;38.994;2023-04-10T03:47:17;101436.91;;;13.62;66.28
50684;BME280;36654;45.042;38.994;2023-04-10T03:49:42;101449.41;;;13.66;65.80
50684;BME280;36654;45.042;38.994;2023-04-10T03:52:08;101438.63;;;13.53;65.82
50684;BME280;36654;45.042;38.994;2023-04-10T03:54:34;101440.47;;;13.61;65.89
50684;BME280;36654;45.042;38.994;2023-04-10T03:56:59;101435.94;;;13.55;65.58
50684;BME280;36654;45.042;38.994;2023-04-10T03:59:26;101444.97;;;13.68;65.64
50684;BME280;36654;45.042;38.994;2023-04-10T04:01:51;101435.28;;;13.76;65.00
50684;BME280;36654;45.042;38.994;2023-04-10T04:04:17;101432.84;;;14.00;64.52
50684;BME280;36654;45.042;38.994;2023-04-10T04:06:43;101443.63;;;14.17;63.79
50684;BME280;36654;45.042;38.994;2023-04-10T04:09:09;101392.88;;;14.07;62.98
50684;BME280;36654;45.042;38.994;2023-04-10T04:11:34;101434.91;;;14.41;62.55
50684;BME280;36654;45.042;38.994;2023-04-10T04:14:00;101414.56;;;14.54;62.35
50684;BME280;36654;45.042;38.994;2023-04-10T04:16:25;101404.00;;;14.73;61.66
50684;BME280;36654;45.042;38.994;2023-04-10T04:18:51;101419.25;;;15.04;60.75
50684;BME280;36654;45.042;38.994;2023-04-10T04:21:17;101409.47;;;15.14;60.04
50684;BME280;36654;45.042;38.994;2023-04-10T04:23:42;101412.19;;;15.23;59.73
50684;BME280;36654;45.042;38.994;2023-04-10T04:26:08;101406.84;;;15.22;59.39
50684;BME280;36654;45.042;38.994;2023-04-10T04:28:34;101408.59;;;15.17;59.36
50684;BME280;36654;45.042;38.994;2023-04-10T04:31:00;101403.28;;;15.18;59.32
50684;BME280;36654;45.042;38.994;2023-04-10T04:33:26;101401.53;;;15.31;59.20
50684;BME280;36654;45.042;38.994;2023-04-10T04:35:52;101397.09;;;15.38;58.89
50684;BME280;36654;45.042;38.994;2023-04-10T04:38:18;101407.75;;;15.35;58.85
50684;BME280;36654;45.042;38.994;2023-04-10T04:40:45;101397.06;;;15.25;59.53
50684;BME280;36654;45.042;38.994;2023-04-10T04:43:10;101398.88;;;15.48;59.48
50684;BME280;36654;45.042;38.994;2023-04-10T04:45:36;101385.53;;;15.66;58.50
50684;BME280;36654;45.042;38.994;2023-04-10T04:48:01;101395.38;;;15.86;58.28
50684;BME280;36654;45.042;38.994;2023-04-10T04:50:27;101380.22;;;15.89;57.98
50684;BME280;36654;45.042;38.994;2023-04-10T04:52:53;101368.66;;;15.81;58.17
50684;BME280;36654;45.042;38.994;2023-04-10T04:55:18;101385.56;;;16.02;57.76
50684;BME280;36654;45.042;38.994;2023-04-10T04:57:44;101388.25;;;16.00;57.80
50684;BME280;36654;45.042;38.994;2023-04-10T05:00:10;101391.81;;;16.08;57.79
50684;BME280;36654;45.042;38.994;2023-04-10T05:02:36;101361.50;;;16.00;57.71
50684;BME280;36654;45.042;38.994;2023-04-10T05:05:01;101385.53;;;16.23;57.48
50684;BME280;36654;45.042;38.994;2023-04-10T05:07:27;101371.28;;;16.12;57.57
50684;BME280;36654;45.042;38.994;2023-04-10T05:09:53;101365.97;;;15.93;57.79
50684;BME280;36654;45.042;38.994;2023-04-10T05:12:18;101381.09;;;15.99;58.19
50684;BME280;36654;45.042;38.994;2023-04-10T05:14:45;101374.88;;;15.99;58.42
50684;BME280;36654;45.042;38.994;2023-04-10T05:17:10;101382.88;;;16.09;58.37
50684;BME280;36654;45.042;38.994;2023-04-10T05:19:36;101389.13;;;16.13;58.13
50684;BME280;36654;45.042;38.994;2023-04-10T05:22:02;101370.44;;;15.81;59.20
50684;BME280;36654;45.042;38.994;2023-04-10T05:24:27;101368.66;;;15.70;59.93
50684;BME280;36654;45.042;38.994;2023-04-10T05:26:53;101364.16;;;15.66;59.91
50684;BME280;36654;45.042;38.994;2023-04-10T05:29:19;101365.06;;;15.68;60.42
50684;BME280;36654;45.042;38.994;2023-04-10T05:31:45;101372.19;;;15.63;60.45
50684;BME280;36654;45.042;38.994;2023-04-10T05:34:11;101349.00;;;15.33;61.32
50684;BME280;36654;45.042;38.994;2023-04-10T05:36:37;101368.53;;;15.12;62.25
50684;BME280;36654;45.042;38.994;2023-04-10T05:39:02;101342.66;;;14.86;62.93
50684;BME280;36654;45.042;38.994;2023-04-10T05:41:28;101339.06;;;14.84;63.60
50684;BME280;36654;45.042;38.994;2023-04-10T05:43:53;101318.53;;;14.59;64.48
50684;BME280;36654;45.042;38.994;2023-04-10T05:46:19;101343.47;;;14.67;65.10
50684;BME280;36654;45.042;38.994;2023-04-10T05:48:45;101320.22;;;14.44;65.44
50684;BME280;36654;45.042;38.994;2023-04-10T05:51:10;101385.91;;;14.30;65.74
50684;BME280;36654;45.042;38.994;2023-04-10T05:53:36;101298.63;;;13.95;65.75
50684;BME280;36654;45.042;38.994;2023-04-10T05:56:02;101346.75;;;14.20;66.42
50684;BME280;36654;45.042;38.994;2023-04-10T05:58:28;101351.19;;;14.22;66.55
50684;BME280;36654;45.042;38.994;2023-04-10T06:00:54;101329.88;;;14.18;66.92
50684;BME280;36654;45.042;38.994;2023-04-10T06:03:20;101316.47;;;14.09;67.12
50684;BME280;36654;45.042;38.994;2023-04-10T06:05:46;101328.13;;;14.26;67.41
50684;BME280;36654;45.042;38.994;2023-04-10T06:08:12;101321.00;;;14.22;67.72
50684;BME280;36654;45.042;38.994;2023-04-10T06:10:37;101324.56;;;14.30;67.79
50684;BME280;36654;45.042;38.994;2023-04-10T06:13:03;101334.38;;;14.31;67.69
50684;BME280;36654;45.042;38.994;2023-04-10T06:15:29;101322.81;;;14.31;67.26
50684;BME280;36654;45.042;38.994;2023-04-10T06:17:54;101284.44;;;14.01;66.86
50684;BME280;36654;45.042;38.994;2023-04-10T06:20:20;101332.56;;;14.24;66.91
50684;BME280;36654;45.042;38.994;2023-04-10T06:22:46;101303.19;;;14.13;66.89
50684;BME280;36654;45.042;38.994;2023-04-10T06:25:12;101323.66;;;14.25;66.72
50684;BME280;36654;45.042;38.994;2023-04-10T06:27:38;101342.38;;;14.30;66.64
50684;BME280;36654;45.042;38.994;2023-04-10T06:30:04;101318.38;;;14.28;66.33
50684;BME280;36654;45.042;38.994;2023-04-10T06:32:30;101322.84;;;14.35;66.24
50684;BME280;36654;45.042;38.994;2023-04-10T06:34:56;101284.47;;;14.09;66.21
50684;BME280;36654;45.042;38.994;2023-04-10T06:37:29;101338.03;;;14.52;65.86
50684;BME280;36654;45.042;38.994;2023-04-10T06:40:09;101322.06;;;14.55;65.57
50684;BME280;36654;45.042;38.994;2023-04-10T06:42:36;101313.13;;;14.50;65.52
50684;BME280;36654;45.042;38.994;2023-04-10T06:45:02;101314.88;;;14.43;66.06
50684;BME280;36654;45.042;38.994;2023-04-10T06:47:29;101311.34;;;14.49;66.22
50684;BME280;36654;45.042;38.994;2023-04-10T06:49:54;101284.56;;;14.30;66.40
50684;BME280;36654;45.042;38.994;2023-04-10T06:52:20;101272.13;;;14.23;66.31
50684;BME280;36654;45.042;38.994;2023-04-10T06:54:46;101302.44;;;14.43;65.97
50684;BME280;36654;45.042;38.994;2023-04-10T06:57:11;101268.56;;;14.21;65.85
50684;BME280;36654;45.042;38.994;2023-04-10T06:59:37;101309.50;;;14.40;65.96
50684;BME280;36654;45.042;38.994;2023-04-10T07:02:03;101254.38;;;14.28;65.96
50684;BME280;36654;45.042;38.994;2023-04-10T07:04:30;101300.69;;;14.49;65.52
50684;BME280;36654;45.042;38.994;2023-04-10T07:06:55;101293.66;;;14.66;65.61
50684;BME280;36654;45.042;38.994;2023-04-10T07:09:22;101272.31;;;14.66;65.08
50684;BME280;36654;45.042;38.994;2023-04-10T07:11:48;101283.03;;;14.89;65.01
50684;BME280;36654;45.042;38.994;2023-04-10T07:14:13;101291.06;;;14.98;64.79
50684;BME280;36654;45.042;38.994;2023-04-10T07:16:40;101236.75;;;14.76;64.66
50684;BME280;36654;45.042;38.994;2023-04-10T07:19:05;101234.97;;;14.87;64.58
50684;BME280;36654;45.042;38.994;2023-04-10T07:21:31;101222.53;;;14.91;64.08
50684;BME280;36654;45.042;38.994;2023-04-10T07:23:57;101269.72;;;15.07;63.58
50684;BME280;36654;45.042;38.994;2023-04-10T07:26:23;101281.31;;;15.08;64.06
50684;BME280;36654;45.042;38.994;2023-04-10T07:28:49;101222.53;;;14.80;64.12
50684;BME280;36654;45.042;38.994;2023-04-10T07:31:15;101270.63;;;15.11;63.92
50684;BME280;36654;45.042;38.994;2023-04-10T07:33:43;101267.06;;;15.15;63.97
50684;BME280;36654;45.042;38.994;2023-04-10T07:36:09;101257.25;;;15.22;63.88
50684;BME280;36654;45.042;38.994;2023-04-10T07:38:34;101276.84;;;15.47;63.60
50684;BME280;36654;45.042;38.994;2023-04-10T07:41:00;101266.16;;;15.59;62.98
50684;BME280;36654;45.042;38.994;2023-04-10T07:43:26;101220.72;;;15.50;62.83
50684;BME280;36654;45.042;38.994;2023-04-10T07:45:52;101248.31;;;15.67;63.10
50684;BME280;36654;45.042;38.994;2023-04-10T07:48:17;101243.94;;;15.72;63.00
50684;BME280;36654;45.042;38.994;2023-04-10T07:50:43;101231.44;;;15.78;62.76
50684;BME280;36654;45.042;38.994;2023-04-10T07:53:09;101249.22;;;15.88;62.13
50684;BME280;36654;45.042;38.994;2023-04-10T07:55:40;101235.84;;;15.94;62.28
50684;BME280;36654;45.042;38.994;2023-04-10T07:58:06;101243.84;;;16.00;61.80
50684;BME280;36654;45.042;38.994;2023-04-10T08:00:32;101215.34;;;15.93;61.45
50684;BME280;36654;45.042;38.994;2023-04-10T08:02:58;101221.53;;;16.10;61.40
50684;BME280;36654;45.042;38.994;2023-04-10T08:05:24;101214.34;;;16.23;61.32
50684;BME280;36654;45.042;38.994;2023-04-10T08:07:49;101224.09;;;16.32;61.13
50684;BME280;36654;45.042;38.994;2023-04-10T08:10:15;101202.69;;;16.32;61.00
50684;BME280;36654;45.042;38.994;2023-04-10T08:12:41;101204.47;;;16.36;61.03
50684;BME280;36654;45.042;38.994;2023-04-10T08:15:07;101156.41;;;16.14;60.92
50684;BME280;36654;45.042;38.994;2023-04-10T08:17:32;101197.34;;;16.35;60.56
50684;BME280;36654;45.042;38.994;2023-04-10T08:19:58;101177.72;;;16.33;60.29
50684;BME280;36654;45.042;38.994;2023-04-10T08:22:23;101203.50;;;16.48;60.02
50684;BME280;36654;45.042;38.994;2023-04-10T08:24:49;101174.06;;;16.46;59.14
50684;BME280;36654;45.042;38.994;2023-04-10T08:27:15;101162.47;;;16.49;58.50
50684;BME280;36654;45.042;38.994;2023-04-10T08:29:41;101115.25;;;16.37;58.23
50684;BME280;36654;45.042;38.994;2023-04-10T08:32:07;101179.31;;;16.68;58.36
50684;BME280;36654;45.042;38.994;2023-04-10T08:34:33;101179.31;;;16.65;58.58
50684;BME280;36654;45.042;38.994;2023-04-10T08:36:59;101167.66;;;16.72;58.97
50684;BME280;36654;45.042;38.994;2023-04-10T08:39:24;101153.34;;;16.77;59.34
50684;BME280;36654;45.042;38.994;2023-04-10T08:41:50;101156.91;;;16.81;59.25
50684;BME280;36654;45.042;38.994;2023-04-10T08:44:16;101151.53;;;16.86;59.57
50684;BME280;36654;45.042;38.994;2023-04-10T08:46:43;101156.81;;;16.93;59.19
50684;BME280;36654;45.042;38.994;2023-04-10T08:49:16;101151.47;;;16.95;59.27
50684;BME280;36654;45.042;38.994;2023-04-10T08:51:50;101147.72;;;17.13;58.90
50684;BME280;36654;45.042;38.994;2023-04-10T08:54:22;101140.50;;;17.22;58.22
50684;BME280;36654;45.042;38.994;2023-04-10T08:56:52;101142.19;;;17.33;57.92
50684;BME280;36654;45.042;38.994;2023-04-10T08:59:18;101145.66;;;17.39;58.00
50684;BME280;36654;45.042;38.994;2023-04-10T09:01:44;101150.13;;;17.40;58.13
50684;BME280;36654;45.042;38.994;2023-04-10T09:04:11;101145.78;;;17.29;58.19
50684;BME280;36654;45.042;38.994;2023-04-10T09:06:37;101148.63;;;17.15;58.95
50684;BME280;36654;45.042;38.994;2023-04-10T09:09:06;101136.13;;;17.11;58.82
50684;BME280;36654;45.042;38.994;2023-04-10T09:11:58;101148.75;;;16.96;59.46
50684;BME280;36654;45.042;38.994;2023-04-10T09:14:29;101142.59;;;16.87;59.80
50684;BME280;36654;45.042;38.994;2023-04-10T09:17:21;101148.88;;;16.83;60.09
50684;BME280;36654;45.042;38.994;2023-04-10T09:19:49;101147.13;;;16.80;60.28
50684;BME280;36654;45.042;38.994;2023-04-10T09:22:17;101137.28;;;16.74;60.33
50684;BME280;36654;45.042;38.994;2023-04-10T09:24:44;101095.50;;;16.56;60.76
50684;BME280;36654;45.042;38.994;2023-04-10T09:27:26;101083.06;;;16.49;60.74
50684;BME280;36654;45.042;38.994;2023-04-10T09:29:52;101134.66;;;16.70;59.90
50684;BME280;36654;45.042;38.994;2023-04-10T09:32:41;101120.41;;;16.68;58.84
50684;BME280;36654;45.042;38.994;2023-04-10T09:35:09;101093.81;;;16.46;58.16
50684;BME280;36654;45.042;38.994;2023-04-10T09:37:36;101132.88;;;16.69;58.19
50684;BME280;36654;45.042;38.994;2023-04-10T09:40:02;101129.31;;;16.67;58.37
50684;BME280;36654;45.042;38.994;2023-04-10T09:42:33;101126.63;;;16.71;58.55
50684;BME280;36654;45.042;38.994;2023-04-10T09:45:00;101126.66;;;16.68;58.41
50684;BME280;36654;45.042;38.994;2023-04-10T09:47:26;101076.88;;;16.46;58.75
50684;BME280;36654;45.042;38.994;2023-04-10T09:49:54;101132.81;;;16.81;58.61
50684;BME280;36654;45.042;38.994;2023-04-10T09:52:24;101127.41;;;16.90;58.60
50684;BME280;36654;45.042;38.994;2023-04-10T09:54:51;101104.25;;;16.83;58.21
50684;BME280;36654;45.042;38.994;2023-04-10T09:57:19;101093.44;;;16.94;57.42
50684;BME280;36654;45.042;38.994;2023-04-10T09:59:49;101088.06;;;16.95;58.00
50684;BME280;36654;45.042;38.994;2023-04-10T10:02:16;101063.97;;;16.94;58.50
50684;BME280;36654;45.042;38.994;2023-04-10T10:04:44;101065.69;;;17.01;58.60
50684;BME280;36654;45.042;38.994;2023-04-10T10:07:18;101081.72;;;17.06;57.90
50684;BME280;36654;45.042;38.994;2023-04-10T10:09:46;101086.09;;;17.16;57.38
50684;BME280;36654;45.042;38.994;2023-04-10T10:12:16;101102.94;;;17.24;57.14
50684;BME280;36654;45.042;38.994;2023-04-10T10:18:00;101104.53;;;17.42;55.95
50684;BME280;36654;45.042;38.994;2023-04-10T10:20:22;101112.50;;;17.50;56.10
50684;BME280;36654;45.042;38.994;2023-04-10T10:22:49;101091.91;;;17.55;55.71
50684;BME280;36654;45.042;38.994;2023-04-10T10:25:17;101095.44;;;17.58;55.02
50684;BME280;36654;45.042;38.994;2023-04-10T10:27:45;101094.41;;;17.67;54.15
50684;BME280;36654;45.042;38.994;2023-04-10T10:30:16;101116.69;;;17.72;53.89
50684;BME280;36654;45.042;38.994;2023-04-10T10:32:44;101091.78;;;17.64;53.47
50684;BME280;36654;45.042;38.994;2023-04-10T10:35:11;101073.00;;;17.64;53.99
50684;BME280;36654;45.042;38.994;2023-04-10T10:37:38;101062.34;;;17.61;54.15
50684;BME280;36654;45.042;38.994;2023-04-10T10:40:11;101071.09;;;17.74;54.15
50684;BME280;36654;45.042;38.994;2023-04-10T10:43:12;101071.09;;;17.75;53.94
50684;BME280;36654;45.042;38.994;2023-04-10T10:48:25;101046.16;;;17.68;52.79
50684;BME280;36654;45.042;38.994;2023-04-10T10:50:55;101070.19;;;17.76;53.10
50684;BME280;36654;45.042;38.994;2023-04-10T10:58:54;101066.59;;;17.77;51.61
50684;BME280;36654;45.042;38.994;2023-04-10T11:01:22;101056.81;;;17.72;51.76
50684;BME280;36654;45.042;38.994;2023-04-10T11:03:48;101058.56;;;17.77;51.71
50684;BME280;36654;45.042;38.994;2023-04-10T11:08:48;101050.47;;;17.82;50.77
50684;BME280;36654;45.042;38.994;2023-04-10T11:11:26;101048.47;;;17.98;51.08
50684;BME280;36654;45.042;38.994;2023-04-10T11:16:18;101004.44;;;18.11;50.41
50684;BME280;36654;45.042;38.994;2023-04-10T11:21:22;101034.34;;;18.44;49.96
50684;BME280;36654;45.042;38.994;2023-04-10T11:28:58;101001.25;;;18.42;50.18
50684;BME280;36654;45.042;38.994;2023-04-10T11:31:24;101019.91;;;18.51;49.76
50684;BME280;36654;45.042;38.994;2023-04-10T11:36:23;101013.59;;;18.55;49.30
50684;BME280;36654;45.042;38.994;2023-04-10T11:39:15;100996.44;;;18.62;49.12
50684;BME280;36654;45.042;38.994;2023-04-10T11:41:47;100996.44;;;18.62;48.08
50684;BME280;36654;45.042;38.994;2023-04-10T11:44:27;101016.06;;;18.64;48.94
50684;BME280;36654;45.042;38.994;2023-04-10T11:46:53;100963.72;;;18.40;49.33
50684;BME280;36654;45.042;38.994;2023-04-10T11:49:21;100991.13;;;18.59;49.63
50684;BME280;36654;45.042;38.994;2023-04-10T11:51:48;100990.13;;;18.65;49.26
50684;BME280;36654;45.042;38.994;2023-04-10T11:57:06;101008.94;;;18.63;49.41
50684;BME280;36654;45.042;38.994;2023-04-10T11:59:34;100983.97;;;18.58;49.75
50684;BME280;36654;45.042;38.994;2023-04-10T12:02:05;100994.53;;;18.69;49.41
50684;BME280;36654;45.042;38.994;2023-04-10T12:04:32;100985.59;;;18.67;49.49
50684;BME280;36654;45.042;38.994;2023-04-10T12:06:58;100978.47;;;18.67;49.22
50684;BME280;36654;45.042;38.994;2023-04-10T12:09:23;100933.94;;;18.54;49.08
50684;BME280;36654;45.042;38.994;2023-04-10T12:11:52;100949.75;;;18.69;48.91
50684;BME280;36654;45.042;38.994;2023-04-10T12:14:20;100964.03;;;18.71;49.15
50684;BME280;36654;45.042;38.994;2023-04-10T12:16:46;100975.66;;;18.72;49.57
50684;BME280;36654;45.042;38.994;2023-04-10T12:19:13;100909.97;;;18.45;49.63
50684;BME280;36654;45.042;38.994;2023-04-10T12:21:41;100935.53;;;18.64;49.82
50684;BME280;36654;45.042;38.994;2023-04-10T12:24:08;100946.16;;;18.70;49.99
50684;BME280;36654;45.042;38.994;2023-04-10T12:26:33;100952.56;;;18.65;50.11
50684;BME280;36654;45.042;38.994;2023-04-10T12:28:59;100965.03;;;18.67;50.38
50684;BME280;36654;45.042;38.994;2023-04-10T12:31:33;100942.72;;;18.64;50.50
50684;BME280;36654;45.042;38.994;2023-04-10T12:33:59;100953.53;;;18.59;50.58
50684;BME280;36654;45.042;38.994;2023-04-10T12:36:27;100936.66;;;18.52;50.43
50684;BME280;36654;45.042;38.994;2023-04-10T12:38:57;100941.25;;;18.46;50.50
50684;BME280;36654;45.042;38.994;2023-04-10T12:41:25;100944.81;;;18.48;50.18
50684;BME280;36654;45.042;38.994;2023-04-10T12:43:52;100905.91;;;18.22;50.06
50684;BME280;36654;45.042;38.994;2023-04-10T12:46:26;100910.06;;;18.40;50.11
50684;BME280;36654;45.042;38.994;2023-04-10T12:48:53;100917.09;;;18.44;50.53
50684;BME280;36654;45.042;38.994;2023-04-10T12:51:18;100912.75;;;18.39;49.57
50684;BME280;36654;45.042;38.994;2023-04-10T12:53:45;100892.28;;;18.35;49.87
50684;BME280;36654;45.042;38.994;2023-04-10T12:56:11;100910.13;;;18.36;49.71
50684;BME280;36654;45.042;38.994;2023-04-10T12:58:38;100876.41;;;18.19;49.56
50684;BME280;36654;45.042;38.994;2023-04-10T13:01:05;100899.47;;;18.31;49.61
50684;BME280;36654;45.042;38.994;2023-04-10T13:03:35;100875.69;;;18.11;49.21
50684;BME280;36654;45.042;38.994;2023-04-10T13:06:04;100855.22;;;18.05;48.91
50684;BME280;36654;45.042;38.994;2023-04-10T13:08:30;100910.28;;;18.26;49.16
50684;BME280;36654;45.042;38.994;2023-04-10T13:11:00;100899.59;;;18.25;49.59
50684;BME280;36654;45.042;38.994;2023-04-10T13:13:29;100890.63;;;18.26;49.32
50684;BME280;36654;45.042;38.994;2023-04-10T13:15:57;100908.41;;;18.31;49.67
50684;BME280;36654;45.042;38.994;2023-04-10T13:18:23;100908.41;;;18.31;49.63
50684;BME280;36654;45.042;38.994;2023-04-10T13:20:49;100886.03;;;18.32;49.98
50684;BME280;36654;45.042;38.994;2023-04-10T13:23:14;100862.03;;;18.25;50.04